Pagrindinis puslapis
METAR-TAF:

METAR-TAF

Oro uostai :

Liberija, Kosta Rika

platuma: 10-37N, ilguma: 085-26W, Aukštis: 80 m

Dabartinis oras

Ataskaita buvo paskelbta 1 valandą ir 4 minutes, ne 12:00 UTC
Vėjas 19 kt iš Rytų
Temperatūra 27°C
Drėgmė 66%
Slėgis 1012 hPa
Matomumas 10 km arba daugiau
Mažai debesys ne aukštis 4500 ft

METAR: MRLB 281200Z 09019KT 9999 FEW045 27/20 A2988

Laikas: 07:04 (13:04 UTC)

Prognozė

Ataskaita buvo paskelbta 2 valandos ir 4 minutes, ne 11:00 UTC
Prognozė galioja nuo 28 metu 12 UTC su 29 metu 12 UTC
Vėjas 18 kt iš Rytų
Matomumas 10 km arba daugiau
Mažai debesys ne aukštis 4000 ft
Laikinai
nuo 28 metu 12 UTC su 28 metu 14 UTC
Vėjas 7 kt iš Rytų/Šiaurės Rytų
Laikinai
nuo 28 metu 15 UTC su 28 metu 24 UTC
Vėjas 22 kt iš Rytų su gūsio iki 32 kt

TAF: MRLB 281100Z 2812/2912 08018KT 9999 FEW040 TX35/2819Z TN22/2912Z TEMPO 2812/2814 06007KT TEMPO 2815/2824 08022G32KT

Orai ataskaitas ir orų prognozės (METAR, TAF).

turimą stotys yra geltonos ir raudonos taškus žemėlapyje.

Perkelti pele per norėdami pamatyti stoties vardą.

Tada spustelėkite, norėdami matyti oro stebėjimo ir prognozės.

Norėdami pakeisti žemėlapį: spustelėkite ant žalios mygtukų su juodo kryžiaus žemyn,; žalią mygtuką su brūkšneliu, jei norite nutolinti; arba žalių rodyklių gretimoms žemėlapius.


METAR-TAF: